createdAt,value
2018-05-03T00:03:06.953Z,8.22
2018-05-03T00:09:01.931Z,7.34
2018-05-03T00:14:56.934Z,7.45
2018-05-03T00:20:51.924Z,7.79
2018-05-03T00:26:46.949Z,7.85
2018-05-03T00:32:41.912Z,8.79
2018-05-03T00:38:36.913Z,7.54
2018-05-03T00:44:31.911Z,22.53
2018-05-03T00:50:26.964Z,8.75
2018-05-03T00:56:21.925Z,7.79
2018-05-03T01:02:16.980Z,8.73
2018-05-03T01:08:11.933Z,10.16
2018-05-03T01:14:06.933Z,8.37
2018-05-03T01:20:02.014Z,8.94
2018-05-03T01:25:56.983Z,5.96
2018-05-03T01:31:51.935Z,6.42
2018-05-03T01:37:46.981Z,5.93
2018-05-03T01:43:41.996Z,12.35
2018-05-03T01:49:36.970Z,6.95
2018-05-03T01:55:31.949Z,8.03
2018-05-03T02:01:27.005Z,5.65
2018-05-03T02:07:21.984Z,7.24
2018-05-03T02:13:16.983Z,5.81
2018-05-03T02:19:12.006Z,5.6
2018-05-03T02:25:06.992Z,5.86
2018-05-03T02:31:01.990Z,9.43
2018-05-03T02:36:56.993Z,7.8
2018-05-03T02:42:52.016Z,12.03
2018-05-03T02:48:46.991Z,5.61
2018-05-03T02:54:42.058Z,7.98
2018-05-03T03:00:36.995Z,8.9
2018-05-03T03:06:32.021Z,8.62
2018-05-03T03:12:27.006Z,9.1
2018-05-03T03:18:22.028Z,6.17
2018-05-03T03:24:17.032Z,5.07
2018-05-03T03:30:12.010Z,8.49
2018-05-03T03:36:07.030Z,6.29
2018-05-03T03:42:02.016Z,6.3
2018-05-03T03:47:57.037Z,8.51
2018-05-03T03:53:52.046Z,6.59
2018-05-03T03:59:47.051Z,7.84
2018-05-03T04:05:42.068Z,7.54
2018-05-03T04:11:37.051Z,9.02
2018-05-03T04:17:32.046Z,7.13
2018-05-03T04:23:27.052Z,7.6
2018-05-03T04:29:22.042Z,6.37
2018-05-03T04:35:17.053Z,7.4
2018-05-03T04:41:12.071Z,6.37
2018-05-03T04:47:07.040Z,4.56
2018-05-03T04:53:02.077Z,5.31
2018-05-03T04:58:57.084Z,7
2018-05-03T05:04:52.088Z,4.49
2018-05-03T05:10:47.091Z,3.73
2018-05-03T05:16:42.101Z,5.29
2018-05-03T05:22:37.090Z,6.8
2018-05-03T05:28:32.071Z,7.08
2018-05-03T05:34:27.078Z,10.2
2018-05-03T05:40:22.135Z,10.28
2018-05-03T05:46:17.094Z,9.28
2018-05-03T05:52:12.126Z,9.39
2018-05-03T05:58:07.119Z,6.8
2018-05-03T06:04:02.100Z,10.12
2018-05-03T06:09:57.112Z,9.29
2018-05-03T06:15:52.110Z,8.59
2018-05-03T06:21:47.092Z,8.01
2018-05-03T06:27:42.107Z,9.26
2018-05-03T06:33:37.114Z,7.31
2018-05-03T06:39:32.129Z,10.22
2018-05-03T06:45:27.136Z,8.2
2018-05-03T06:51:22.161Z,9.59
2018-05-03T06:57:17.125Z,8.59
2018-05-03T07:03:12.125Z,6.62
2018-05-03T07:09:07.173Z,6.22
2018-05-03T07:15:02.121Z,7.62
2018-05-03T07:20:57.165Z,6.14
2018-05-03T07:26:52.135Z,4.22
2018-05-03T07:32:47.201Z,4.8
2018-05-03T07:38:42.163Z,5.23
2018-05-03T07:44:37.199Z,6.38
2018-05-03T07:50:32.188Z,7.03
2018-05-03T07:56:27.166Z,5.1
2018-05-03T08:02:22.142Z,4.2
2018-05-03T08:08:17.188Z,4.04
2018-05-03T08:14:12.150Z,6.88
2018-05-03T08:20:07.194Z,7.49
2018-05-03T08:26:02.183Z,4.51
2018-05-03T08:31:57.162Z,5.1
2018-05-03T08:37:52.218Z,7.23
2018-05-03T08:43:47.202Z,4.51
2018-05-03T08:49:42.224Z,6.3
2018-05-03T08:55:37.229Z,7.17
2018-05-03T09:01:32.223Z,4.65
2018-05-03T09:07:27.285Z,7.74
2018-05-03T09:13:22.202Z,3.9
2018-05-03T09:19:17.192Z,7.06
2018-05-03T09:25:12.292Z,5.31
2018-05-03T09:31:07.215Z,5.08
2018-05-03T09:37:02.196Z,5.47
2018-05-03T09:42:57.224Z,9.09
2018-05-03T09:48:52.251Z,5.41
2018-05-03T09:54:47.223Z,4.58
2018-05-03T10:00:42.280Z,7.36
2018-05-03T10:06:37.215Z,6.15
2018-05-03T10:12:32.267Z,5.9
2018-05-03T10:18:27.251Z,5.43
2018-05-03T10:24:22.241Z,5.41
2018-05-03T10:30:17.318Z,5.08
2018-05-03T10:36:12.421Z,4.88
2018-05-03T10:42:07.381Z,5.3
2018-05-03T10:48:02.257Z,4.78
2018-05-03T10:53:57.253Z,4.81
2018-05-03T10:59:52.274Z,4.92
2018-05-03T11:05:47.265Z,4.37
2018-05-03T11:11:42.256Z,4.86
2018-05-03T11:17:37.291Z,5.85
2018-05-03T11:23:32.280Z,5.57
2018-05-03T11:29:27.260Z,5.13
2018-05-03T11:35:22.293Z,8.13
2018-05-03T11:41:17.251Z,6
2018-05-03T11:47:12.291Z,6.54
2018-05-03T11:53:07.247Z,6.45
2018-05-03T11:59:02.283Z,9.29
2018-05-03T12:04:57.300Z,6.78
2018-05-03T12:10:52.307Z,6.42
2018-05-03T12:16:47.295Z,7.68
2018-05-03T12:22:42.339Z,7.6
2018-05-03T12:28:37.289Z,8.5
2018-05-03T12:34:32.294Z,6.41
2018-05-03T12:40:27.331Z,7.99
2018-05-03T12:46:22.324Z,10.56
2018-05-03T12:52:17.329Z,7.56
2018-05-03T12:58:12.354Z,7.72
2018-05-03T13:04:07.326Z,8.42
2018-05-03T13:10:02.355Z,7.8
2018-05-03T13:15:57.323Z,9.23
2018-05-03T13:21:52.391Z,8.38
2018-05-03T13:27:47.311Z,7.47
2018-05-03T13:33:42.348Z,8.84
2018-05-03T13:39:37.334Z,7.76
2018-05-03T13:45:32.326Z,9.99
2018-05-03T13:51:27.387Z,8.74
2018-05-03T13:57:22.375Z,8.14
2018-05-03T14:03:17.360Z,9.66
2018-05-03T14:09:12.387Z,9.29
2018-05-03T14:15:07.368Z,9.55
2018-05-03T14:21:02.463Z,10.76
2018-05-03T14:26:57.388Z,13.19
2018-05-03T14:32:52.346Z,12.06
2018-05-03T14:38:47.382Z,9.05
2018-05-03T14:44:42.390Z,9.4
2018-05-03T14:50:37.365Z,9.81
2018-05-03T14:56:32.385Z,6.89
2018-05-03T15:02:27.390Z,5.82
2018-05-03T15:08:22.391Z,8.57
2018-05-03T15:14:17.415Z,12.32
2018-05-03T15:20:12.417Z,9.26
2018-05-03T15:26:07.393Z,13.31
2018-05-03T15:32:02.418Z,11.55
2018-05-03T15:37:57.468Z,12.77
2018-05-03T15:43:52.400Z,8.72
2018-05-03T15:43:52.434Z,8.72
2018-05-03T15:49:47.411Z,12.6
2018-05-03T15:49:47.446Z,12.6
2018-05-03T15:55:42.476Z,9.13
2018-05-03T15:55:42.476Z,9.13
2018-05-03T16:01:37.517Z,9.77
2018-05-03T16:01:37.517Z,9.77
2018-05-03T16:07:32.526Z,12.79
2018-05-03T16:07:32.547Z,12.79
2018-05-03T16:13:27.439Z,5.25
2018-05-03T16:13:27.484Z,5.25
2018-05-03T16:19:22.421Z,5.64
2018-05-03T16:19:22.425Z,5.64
2018-05-03T16:25:17.426Z,7.5
2018-05-03T16:25:17.460Z,7.5
2018-05-03T16:31:12.427Z,7.07
2018-05-03T16:31:12.445Z,7.07
2018-05-03T16:37:07.418Z,3.37
2018-05-03T16:37:07.448Z,3.37
2018-05-03T16:43:02.435Z,7.62
2018-05-03T16:43:02.448Z,7.62
2018-05-03T16:48:57.456Z,6.8
2018-05-03T16:48:57.459Z,6.8
2018-05-03T16:54:52.460Z,5.13
2018-05-03T16:54:52.507Z,5.13
2018-05-03T17:00:47.424Z,9.44
2018-05-03T17:00:47.476Z,9.44
2018-05-03T17:06:42.434Z,7.87
2018-05-03T17:06:42.444Z,7.87
2018-05-03T17:12:37.465Z,5.65
2018-05-03T17:12:37.473Z,5.65
2018-05-03T17:18:32.479Z,6.11
2018-05-03T17:18:32.497Z,6.11
2018-05-03T17:24:27.494Z,6.78
2018-05-03T17:24:27.496Z,6.78
2018-05-03T17:30:22.445Z,7.79
2018-05-03T17:30:22.456Z,7.79
2018-05-03T17:36:17.486Z,3.66
2018-05-03T17:36:17.517Z,3.66
2018-05-03T17:42:12.447Z,4.89
2018-05-03T17:42:12.481Z,4.89
2018-05-03T17:48:07.492Z,6.28
2018-05-03T17:48:07.500Z,6.28
2018-05-03T17:54:02.475Z,4.64
2018-05-03T17:54:02.485Z,4.64
2018-05-03T17:59:57.482Z,8.12
2018-05-03T17:59:57.509Z,8.12
2018-05-03T18:05:52.486Z,4.25
2018-05-03T18:05:52.508Z,4.25
2018-05-03T18:11:47.509Z,13.73
2018-05-03T18:11:47.556Z,13.73
2018-05-03T18:17:42.487Z,5.49
2018-05-03T18:17:42.500Z,5.49
2018-05-03T18:23:37.476Z,4.67
2018-05-03T18:23:37.482Z,4.67
2018-05-03T18:29:32.472Z,5.49
2018-05-03T18:29:32.520Z,5.49
2018-05-03T18:35:27.536Z,5.33
2018-05-03T18:35:27.571Z,5.33
2018-05-03T18:41:22.500Z,4.95
2018-05-03T18:41:22.530Z,4.95
2018-05-03T18:47:17.543Z,5.93
2018-05-03T18:47:17.557Z,5.93
2018-05-03T18:53:12.496Z,31.26
2018-05-03T18:53:12.512Z,31.26
2018-05-03T18:59:07.522Z,26.73
2018-05-03T18:59:07.536Z,26.73
2018-05-03T19:05:02.503Z,16.28
2018-05-03T19:05:02.540Z,16.28
2018-05-03T19:10:57.495Z,26.98
2018-05-03T19:10:57.532Z,26.98
2018-05-03T19:16:52.546Z,15.75
2018-05-03T19:16:52.563Z,15.75
2018-05-03T19:22:47.531Z,20.5
2018-05-03T19:22:47.534Z,20.5
2018-05-03T19:28:42.524Z,32.53
2018-05-03T19:28:42.526Z,32.53
2018-05-03T19:34:37.523Z,21.83
2018-05-03T19:34:37.539Z,21.83
2018-05-03T19:40:32.534Z,15.79
2018-05-03T19:40:32.555Z,15.79
2018-05-03T19:46:27.539Z,16.35
2018-05-03T19:46:27.553Z,16.35
2018-05-03T19:52:22.558Z,24.43
2018-05-03T19:52:22.596Z,24.43
2018-05-03T19:58:17.533Z,26.1
2018-05-03T19:58:17.548Z,26.1
2018-05-03T20:04:12.568Z,16.9
2018-05-03T20:04:12.610Z,16.9
2018-05-03T20:10:07.552Z,17.74
2018-05-03T20:10:07.554Z,17.74
2018-05-03T20:16:02.545Z,24.32
2018-05-03T20:16:02.547Z,24.32
2018-05-03T20:21:57.563Z,16.27
2018-05-03T20:21:57.568Z,16.27
2018-05-03T20:27:52.561Z,25.22
2018-05-03T20:27:52.564Z,25.22
2018-05-03T20:33:47.544Z,22.81
2018-05-03T20:33:47.653Z,22.81
2018-05-03T20:39:42.617Z,26.89
2018-05-03T20:39:42.636Z,26.89
2018-05-03T20:45:37.554Z,24.29
2018-05-03T20:45:37.593Z,24.29
2018-05-03T20:51:32.578Z,20.36
2018-05-03T20:51:32.592Z,20.36
2018-05-03T20:57:27.546Z,16.97
2018-05-03T20:57:27.554Z,16.97
2018-05-03T21:03:22.569Z,26.9
2018-05-03T21:03:22.572Z,26.9
2018-05-03T21:09:17.648Z,20.29
2018-05-03T21:09:17.651Z,20.29
2018-05-03T21:15:12.592Z,11.02
2018-05-03T21:15:12.594Z,11.02
2018-05-03T21:21:07.595Z,17.36
2018-05-03T21:21:07.605Z,17.36
2018-05-03T21:27:02.564Z,19.83
2018-05-03T21:27:02.581Z,19.83
2018-05-03T21:32:57.598Z,14.82
2018-05-03T21:32:57.619Z,14.82
2018-05-03T21:38:52.579Z,15.6
2018-05-03T21:38:52.589Z,15.6
2018-05-03T21:44:47.597Z,18.49
2018-05-03T21:44:47.627Z,18.49
2018-05-03T21:50:42.574Z,12.29
2018-05-03T21:50:42.584Z,12.29
2018-05-03T21:56:37.593Z,10.17
2018-05-03T21:56:37.618Z,10.17
2018-05-03T22:02:32.619Z,15.53
2018-05-03T22:08:27.603Z,14.48
2018-05-03T22:14:22.652Z,14.9
2018-05-03T22:20:17.618Z,12.57
2018-05-03T22:26:12.610Z,11.42
2018-05-03T22:32:07.627Z,13.7
2018-05-03T22:38:02.616Z,11.58
2018-05-03T22:43:57.637Z,7.9
2018-05-03T22:49:52.626Z,11.91
2018-05-03T22:55:47.654Z,9.5
2018-05-03T23:01:42.666Z,6.06
2018-05-03T23:07:37.616Z,5.86
2018-05-03T23:13:32.643Z,3.38
2018-05-03T23:19:27.649Z,6.69
2018-05-03T23:25:22.618Z,4.38
2018-05-03T23:31:17.652Z,3.03
2018-05-03T23:37:12.651Z,9.5
2018-05-03T23:43:07.648Z,4.96
2018-05-03T23:49:02.641Z,8.23
2018-05-03T23:54:57.697Z,5.1
